KEBS/EBS METAR and TAF weather

Enter ICAO airport designator
Station Type Date Time Source
KEBS METAR 2020/11/27 13:55 UTC NOAA

KEBS 271355Z AUTO 30008KT 6SM BR CLR M03/M03 A3018 RMK AO2


Station Type Date Time Source
KEBS Decoded METAR 2020/11/27 13:55 UTC NOAA

Webster City, IA, United States (KEBS) 42-26N 093-52W
Nov 27, 2020 - 08:55 AM EST / 2020.11.27 1355 UTC
Wind: from the WNW (300 degrees) at 9 MPH (8 KT):0
Visibility: 6 mile(s):0
Sky conditions: clear
Weather: mist
Temperature: 26 F (-3 C)
Windchill: 17 F (-8 C):1
Dew Point: 26 F (-3 C)
Relative Humidity: 100%
Pressure (altimeter): 30.18 in. Hg (1022 hPa)
ob: KEBS 271355Z AUTO 30008KT 6SM BR CLR M03/M03 A3018 RMK AO2
cycle: 14

Station Type Date Time Source
KEBS TAF UTC NOAA

Error!

Example: see airport list